Terminal Aerodrome Forecast
Issued by NWS

Home | Current Version | Previous Version | Graphics & Text | Print | Product List | Glossary On
Versions: 1 2 3 4 5 6 7 8 9 10 11 12 13 14 15 16 17 18 19 20 21 22 23 24 25
069
FTUS43 KMPX 051732
TAFAXN
TAF
KAXN 051732Z 0518/0618 21008KT P6SM VCSH FEW008 SCT015 OVC035
      TEMPO 0518/0522 3SM -SN OVC015
     FM052200 27005KT P6SM BKN020
     FM060000 26005KT P6SM SCT020
     FM061200 21006KT P6SM BKN110=

USA.gov is the U.S. government's official web portal to all federal, state and local government web resources and services.